sensor_id;sensor_type;location;lat;lon;timestamp;pressure;altitude;pressure_sealevel;temperature;humidity
19208;BME280;9737;59.466;18.036;2023-05-09T00:02:00;96644.28;;;2.58;26.40
19208;BME280;9737;59.466;18.036;2023-05-09T00:04:28;96623.78;;;2.53;25.90
19208;BME280;9737;59.466;18.036;2023-05-09T00:06:58;96592.59;;;2.42;26.22
19208;BME280;9737;59.466;18.036;2023-05-09T00:09:26;96614.56;;;2.49;26.28
19208;BME280;9737;59.466;18.036;2023-05-09T00:11:54;96581.94;;;2.43;26.40
19208;BME280;9737;59.466;18.036;2023-05-09T00:14:21;96563.53;;;2.35;25.92
19208;BME280;9737;59.466;18.036;2023-05-09T00:16:50;96526.94;;;2.26;26.08
19208;BME280;9737;59.466;18.036;2023-05-09T00:19:20;96498.72;;;2.20;26.40
19208;BME280;9737;59.466;18.036;2023-05-09T00:21:48;96493.13;;;2.14;26.28
19208;BME280;9737;59.466;18.036;2023-05-09T00:24:16;96466.56;;;2.09;26.66
19208;BME280;9737;59.466;18.036;2023-05-09T00:26:44;96444.28;;;2.05;26.51
19208;BME280;9737;59.466;18.036;2023-05-09T00:29:12;96420.63;;;1.97;26.22
19208;BME280;9737;59.466;18.036;2023-05-09T00:31:40;96403.75;;;1.92;26.51
19208;BME280;9737;59.466;18.036;2023-05-09T00:34:08;96391.94;;;1.88;26.53
19208;BME280;9737;59.466;18.036;2023-05-09T00:36:37;96393.56;;;1.89;26.40
19208;BME280;9737;59.466;18.036;2023-05-09T00:39:07;96384.41;;;1.84;26.08
19208;BME280;9737;59.466;18.036;2023-05-09T00:41:35;96373.41;;;1.81;26.44
19208;BME280;9737;59.466;18.036;2023-05-09T00:44:02;96348.50;;;1.77;26.57
19208;BME280;9737;59.466;18.036;2023-05-09T00:46:31;96330.78;;;1.71;26.47
19208;BME280;9737;59.466;18.036;2023-05-09T00:48:59;96311.28;;;1.65;26.55
19208;BME280;9737;59.466;18.036;2023-05-09T00:51:27;96311.28;;;1.65;26.57
19208;BME280;9737;59.466;18.036;2023-05-09T00:53:57;96294.25;;;1.61;26.64
19208;BME280;9737;59.466;18.036;2023-05-09T00:56:25;96280.66;;;1.58;26.20
19208;BME280;9737;59.466;18.036;2023-05-09T00:58:53;96270.81;;;1.51;26.50
19208;BME280;9737;59.466;18.036;2023-05-09T01:01:22;96267.88;;;1.54;26.40
19208;BME280;9737;59.466;18.036;2023-05-09T01:03:50;96256.41;;;1.47;26.39
19208;BME280;9737;59.466;18.036;2023-05-09T01:06:22;96255.25;;;1.50;26.30
19208;BME280;9737;59.466;18.036;2023-05-09T01:09:02;96234.09;;;1.43;26.77
19208;BME280;9737;59.466;18.036;2023-05-09T01:11:37;96218.72;;;1.40;26.64
19208;BME280;9737;59.466;18.036;2023-05-09T01:14:12;96193.19;;;1.34;26.61
19208;BME280;9737;59.466;18.036;2023-05-09T01:16:49;96187.44;;;1.31;26.62
19208;BME280;9737;59.466;18.036;2023-05-09T01:19:35;96155.34;;;1.20;26.61
19208;BME280;9737;59.466;18.036;2023-05-09T01:22:08;96144.06;;;1.20;26.98
19208;BME280;9737;59.466;18.036;2023-05-09T01:24:54;96131.59;;;1.14;26.69
19208;BME280;9737;59.466;18.036;2023-05-09T01:27:38;96110.00;;;1.04;26.39
19208;BME280;9737;59.466;18.036;2023-05-09T01:30:13;96099.19;;;1.07;26.56
19208;BME280;9737;59.466;18.036;2023-05-09T01:32:45;96081.22;;;1.04;26.53
19208;BME280;9737;59.466;18.036;2023-05-09T01:35:16;96078.25;;;0.99;26.69
19208;BME280;9737;59.466;18.036;2023-05-09T01:37:48;96058.94;;;0.91;26.88
19208;BME280;9737;59.466;18.036;2023-05-09T01:40:19;96057.66;;;0.96;26.48
19208;BME280;9737;59.466;18.036;2023-05-09T01:42:51;96050.13;;;0.92;26.53
19208;BME280;9737;59.466;18.036;2023-05-09T01:45:21;96027.88;;;0.88;26.76
19208;BME280;9737;59.466;18.036;2023-05-09T01:47:50;96015.09;;;0.85;26.94
19208;BME280;9737;59.466;18.036;2023-05-09T01:50:18;96000.56;;;0.83;27.10
19208;BME280;9737;59.466;18.036;2023-05-09T01:52:49;96001.53;;;0.82;26.81
19208;BME280;9737;59.466;18.036;2023-05-09T01:55:20;96004.97;;;0.82;26.66
19208;BME280;9737;59.466;18.036;2023-05-09T01:57:52;95998.41;;;0.78;27.23
19208;BME280;9737;59.466;18.036;2023-05-09T02:00:22;95995.66;;;0.80;26.78
19208;BME280;9737;59.466;18.036;2023-05-09T02:02:51;95985.00;;;0.73;27.00
19208;BME280;9737;59.466;18.036;2023-05-09T02:05:20;95964.41;;;0.70;27.27
19208;BME280;9737;59.466;18.036;2023-05-09T02:07:48;95948.41;;;0.65;27.34
19208;BME280;9737;59.466;18.036;2023-05-09T02:10:17;95932.06;;;0.63;26.93
19208;BME280;9737;59.466;18.036;2023-05-09T02:12:46;95923.72;;;0.59;26.87
19208;BME280;9737;59.466;18.036;2023-05-09T02:15:14;95915.34;;;0.56;27.22
19208;BME280;9737;59.466;18.036;2023-05-09T02:17:44;95910.13;;;0.56;27.40
19208;BME280;9737;59.466;18.036;2023-05-09T02:20:12;95900.16;;;0.51;26.92
19208;BME280;9737;59.466;18.036;2023-05-09T02:22:41;95892.31;;;0.51;27.42
19208;BME280;9737;59.466;18.036;2023-05-09T02:25:11;95888.22;;;0.49;27.13
19208;BME280;9737;59.466;18.036;2023-05-09T02:27:43;95870.25;;;0.46;27.40
19208;BME280;9737;59.466;18.036;2023-05-09T02:30:15;95879.88;;;0.45;27.01
19208;BME280;9737;59.466;18.036;2023-05-09T02:32:48;95858.81;;;0.39;27.39
19208;BME280;9737;59.466;18.036;2023-05-09T02:35:17;95869.59;;;0.44;27.43
19208;BME280;9737;59.466;18.036;2023-05-09T02:37:46;95874.81;;;0.44;27.30
19208;BME280;9737;59.466;18.036;2023-05-09T02:40:15;95855.53;;;0.37;27.47
19208;BME280;9737;59.466;18.036;2023-05-09T02:42:43;95846.72;;;0.29;27.49
19208;BME280;9737;59.466;18.036;2023-05-09T02:45:11;95866.97;;;0.44;27.33
19208;BME280;9737;59.466;18.036;2023-05-09T02:47:39;95877.13;;;0.47;27.08
19208;BME280;9737;59.466;18.036;2023-05-09T02:50:10;95871.88;;;0.47;27.51
19208;BME280;9737;59.466;18.036;2023-05-09T02:52:37;95881.19;;;0.49;27.39
19208;BME280;9737;59.466;18.036;2023-05-09T02:55:07;95896.72;;;0.51;27.69
19208;BME280;9737;59.466;18.036;2023-05-09T02:57:35;95901.63;;;0.54;27.55
19208;BME280;9737;59.466;18.036;2023-05-09T03:00:04;95908.00;;;0.51;27.35
19208;BME280;9737;59.466;18.036;2023-05-09T03:02:34;95930.41;;;0.62;27.87
19208;BME280;9737;59.466;18.036;2023-05-09T03:05:03;95945.47;;;0.68;27.87
19208;BME280;9737;59.466;18.036;2023-05-09T03:07:32;95964.09;;;0.73;27.71
19208;BME280;9737;59.466;18.036;2023-05-09T03:10:00;95987.97;;;0.78;27.72
19208;BME280;9737;59.466;18.036;2023-05-09T03:12:28;96014.44;;;0.83;27.54
19208;BME280;9737;59.466;18.036;2023-05-09T03:14:56;96055.19;;;0.94;28.00
19208;BME280;9737;59.466;18.036;2023-05-09T03:17:25;96079.56;;;1.03;27.93
19208;BME280;9737;59.466;18.036;2023-05-09T03:19:53;96152.59;;;1.22;27.69
19208;BME280;9737;59.466;18.036;2023-05-09T03:22:21;96172.88;;;1.28;28.14
19208;BME280;9737;59.466;18.036;2023-05-09T03:24:50;96222.00;;;1.42;27.83
19208;BME280;9737;59.466;18.036;2023-05-09T03:27:18;96269.34;;;1.57;28.28
19208;BME280;9737;59.466;18.036;2023-05-09T03:29:46;96310.16;;;1.68;27.88
19208;BME280;9737;59.466;18.036;2023-05-09T03:32:14;96357.69;;;1.81;28.00
19208;BME280;9737;59.466;18.036;2023-05-09T03:34:41;96413.75;;;1.96;28.29
19208;BME280;9737;59.466;18.036;2023-05-09T03:37:09;96513.16;;;2.24;28.44
19208;BME280;9737;59.466;18.036;2023-05-09T03:39:40;96610.97;;;2.50;28.20
19208;BME280;9737;59.466;18.036;2023-05-09T03:42:09;96708.69;;;2.78;28.37
19208;BME280;9737;59.466;18.036;2023-05-09T03:44:37;96826.19;;;3.10;28.58
19208;BME280;9737;59.466;18.036;2023-05-09T03:47:05;96902.00;;;3.31;28.61
19208;BME280;9737;59.466;18.036;2023-05-09T03:49:33;97002.53;;;3.59;29.04
19208;BME280;9737;59.466;18.036;2023-05-09T03:52:01;97063.81;;;3.77;28.84
19208;BME280;9737;59.466;18.036;2023-05-09T03:54:29;97200.50;;;4.13;29.01
19208;BME280;9737;59.466;18.036;2023-05-09T03:56:57;97274.13;;;4.30;28.84
19208;BME280;9737;59.466;18.036;2023-05-09T03:59:28;97372.09;;;4.60;28.97
19208;BME280;9737;59.466;18.036;2023-05-09T04:01:55;97462.84;;;4.83;28.99
19208;BME280;9737;59.466;18.036;2023-05-09T04:04:24;97567.19;;;5.12;29.08
19208;BME280;9737;59.466;18.036;2023-05-09T04:06:52;97639.72;;;5.34;29.29
19208;BME280;9737;59.466;18.036;2023-05-09T04:09:20;97740.84;;;5.60;29.75
19208;BME280;9737;59.466;18.036;2023-05-09T04:11:48;97785.31;;;5.73;29.47
19208;BME280;9737;59.466;18.036;2023-05-09T04:14:15;97865.91;;;5.95;29.50
19208;BME280;9737;59.466;18.036;2023-05-09T04:16:45;97927.81;;;6.10;29.98
19208;BME280;9737;59.466;18.036;2023-05-09T04:19:13;97979.41;;;6.22;30.14
19208;BME280;9737;59.466;18.036;2023-05-09T04:21:40;98028.53;;;6.33;29.75
19208;BME280;9737;59.466;18.036;2023-05-09T04:24:08;98059.78;;;6.47;30.36
19208;BME280;9737;59.466;18.036;2023-05-09T04:26:36;98115.56;;;6.62;29.75
19208;BME280;9737;59.466;18.036;2023-05-09T04:29:04;98154.34;;;6.71;29.61
19208;BME280;9737;59.466;18.036;2023-05-09T04:31:32;98214.34;;;6.88;30.44
19208;BME280;9737;59.466;18.036;2023-05-09T04:34:02;98279.69;;;7.05;30.07
19208;BME280;9737;59.466;18.036;2023-05-09T04:36:30;98362.31;;;7.27;30.01
19208;BME280;9737;59.466;18.036;2023-05-09T04:39:02;98421.69;;;7.42;30.27
19208;BME280;9737;59.466;18.036;2023-05-09T04:41:30;98529.28;;;7.70;30.24
19208;BME280;9737;59.466;18.036;2023-05-09T04:43:58;98596.44;;;7.89;30.93
19208;BME280;9737;59.466;18.036;2023-05-09T04:46:26;98720.56;;;8.21;30.74
19208;BME280;9737;59.466;18.036;2023-05-09T04:48:54;98811.66;;;8.49;30.93
19208;BME280;9737;59.466;18.036;2023-05-09T04:51:23;98888.06;;;8.63;30.80
19208;BME280;9737;59.466;18.036;2023-05-09T04:53:51;98979.22;;;8.91;31.25
19208;BME280;9737;59.466;18.036;2023-05-09T04:56:19;99072.63;;;9.14;30.94
19208;BME280;9737;59.466;18.036;2023-05-09T04:58:47;99135.78;;;9.29;31.30
19208;BME280;9737;59.466;18.036;2023-05-09T05:01:15;99179.66;;;9.43;31.19
19208;BME280;9737;59.466;18.036;2023-05-09T05:03:43;99245.38;;;9.60;30.97
19208;BME280;9737;59.466;18.036;2023-05-09T05:06:11;99325.78;;;9.82;31.24
19208;BME280;9737;59.466;18.036;2023-05-09T05:08:40;99409.59;;;10.05;32.04
19208;BME280;9737;59.466;18.036;2023-05-09T05:11:08;99496.28;;;10.27;31.63
19208;BME280;9737;59.466;18.036;2023-05-09T05:13:36;99568.16;;;10.46;31.33
19208;BME280;9737;59.466;18.036;2023-05-09T05:16:04;99650.50;;;10.67;32.21
19208;BME280;9737;59.466;18.036;2023-05-09T05:18:32;99716.09;;;10.78;32.06
19208;BME280;9737;59.466;18.036;2023-05-09T05:21:00;99785.00;;;11.02;31.98
19208;BME280;9737;59.466;18.036;2023-05-09T05:23:28;99856.22;;;11.19;32.52
19208;BME280;9737;59.466;18.036;2023-05-09T05:25:57;99924.03;;;11.36;32.00
19208;BME280;9737;59.466;18.036;2023-05-09T05:28:25;100004.63;;;11.59;32.44
19208;BME280;9737;59.466;18.036;2023-05-09T05:30:53;100082.97;;;11.77;32.32
19208;BME280;9737;59.466;18.036;2023-05-09T05:33:21;100141.06;;;11.94;32.73
19208;BME280;9737;59.466;18.036;2023-05-09T05:35:49;100179.44;;;12.03;32.97
19208;BME280;9737;59.466;18.036;2023-05-09T05:38:17;100285.59;;;12.30;32.71
19208;BME280;9737;59.466;18.036;2023-05-09T05:40:45;100371.84;;;12.51;32.93
19208;BME280;9737;59.466;18.036;2023-05-09T05:43:14;100351.03;;;12.45;32.95
19208;BME280;9737;59.466;18.036;2023-05-09T05:45:42;100410.63;;;12.55;33.02
19208;BME280;9737;59.466;18.036;2023-05-09T05:48:10;100470.13;;;12.78;33.06
19208;BME280;9737;59.466;18.036;2023-05-09T05:50:38;100534.25;;;12.88;33.34
19208;BME280;9737;59.466;18.036;2023-05-09T05:53:05;100588.84;;;13.06;33.28
19208;BME280;9737;59.466;18.036;2023-05-09T05:55:33;100592.22;;;13.08;33.53
19208;BME280;9737;59.466;18.036;2023-05-09T05:58:01;100691.78;;;13.32;33.59
19208;BME280;9737;59.466;18.036;2023-05-09T06:00:30;100793.97;;;13.57;33.77
19208;BME280;9737;59.466;18.036;2023-05-09T06:02:58;100888.22;;;13.81;33.94
19208;BME280;9737;59.466;18.036;2023-05-09T06:05:26;100911.81;;;13.87;34.01
19208;BME280;9737;59.466;18.036;2023-05-09T06:07:54;101007.09;;;14.11;34.07
19208;BME280;9737;59.466;18.036;2023-05-09T06:10:22;101084.22;;;14.28;34.00
19208;BME280;9737;59.466;18.036;2023-05-09T06:12:49;101139.94;;;14.45;33.92
19208;BME280;9737;59.466;18.036;2023-05-09T06:15:17;101237.06;;;14.70;34.30
19208;BME280;9737;59.466;18.036;2023-05-09T06:17:47;101306.25;;;14.87;34.63
19208;BME280;9737;59.466;18.036;2023-05-09T06:20:15;101318.56;;;14.90;34.19
19208;BME280;9737;59.466;18.036;2023-05-09T06:22:43;101340.47;;;14.95;34.42
19208;BME280;9737;59.466;18.036;2023-05-09T06:25:11;101376.41;;;15.03;34.46
19208;BME280;9737;59.466;18.036;2023-05-09T06:27:39;101432.47;;;15.17;34.76
19208;BME280;9737;59.466;18.036;2023-05-09T06:30:08;101542.06;;;15.44;34.91
19208;BME280;9737;59.466;18.036;2023-05-09T06:32:52;101588.53;;;15.56;34.75
19208;BME280;9737;59.466;18.036;2023-05-09T06:35:20;101630.78;;;15.65;34.98
19208;BME280;9737;59.466;18.036;2023-05-09T06:37:48;101522.19;;;15.36;35.06
19208;BME280;9737;59.466;18.036;2023-05-09T06:40:16;101536.94;;;15.41;35.20
19208;BME280;9737;59.466;18.036;2023-05-09T06:42:44;101590.47;;;15.54;34.86
19208;BME280;9737;59.466;18.036;2023-05-09T06:45:12;101623.94;;;15.61;35.15
19208;BME280;9737;59.466;18.036;2023-05-09T06:47:40;101556.31;;;15.45;35.05
19208;BME280;9737;59.466;18.036;2023-05-09T06:50:09;101636.16;;;15.65;34.96
19208;BME280;9737;59.466;18.036;2023-05-09T06:52:37;101544.25;;;15.39;35.18
19208;BME280;9737;59.466;18.036;2023-05-09T06:55:07;101723.88;;;15.87;35.49
19208;BME280;9737;59.466;18.036;2023-05-09T06:57:35;101843.19;;;16.18;35.52
19208;BME280;9737;59.466;18.036;2023-05-09T07:00:04;101954.00;;;16.44;35.49
19208;BME280;9737;59.466;18.036;2023-05-09T07:02:32;102157.91;;;16.96;35.70
19208;BME280;9737;59.466;18.036;2023-05-09T07:05:00;102114.13;;;16.83;35.81
19208;BME280;9737;59.466;18.036;2023-05-09T07:07:30;102182.84;;;16.98;35.73
19208;BME280;9737;59.466;18.036;2023-05-09T07:09:57;102216.91;;;17.11;35.86
19208;BME280;9737;59.466;18.036;2023-05-09T07:12:39;102116.06;;;16.81;35.96
19208;BME280;9737;59.466;18.036;2023-05-09T07:15:08;102243.47;;;17.15;35.81
19208;BME280;9737;59.466;18.036;2023-05-09T07:17:36;102382.47;;;17.51;36.09
19208;BME280;9737;59.466;18.036;2023-05-09T07:20:06;102512.91;;;17.84;36.10
19208;BME280;9737;59.466;18.036;2023-05-09T07:22:36;102648.78;;;18.16;36.30
19208;BME280;9737;59.466;18.036;2023-05-09T07:25:06;102783.81;;;18.50;36.25
19208;BME280;9737;59.466;18.036;2023-05-09T07:27:34;102940.13;;;18.90;36.25
19208;BME280;9737;59.466;18.036;2023-05-09T07:30:02;102841.31;;;18.63;36.28
19208;BME280;9737;59.466;18.036;2023-05-09T07:32:31;102961.38;;;18.94;36.50
19208;BME280;9737;59.466;18.036;2023-05-09T07:34:59;102922.66;;;18.82;36.32
19208;BME280;9737;59.466;18.036;2023-05-09T07:37:26;102937.63;;;18.86;36.42
19208;BME280;9737;59.466;18.036;2023-05-09T07:39:56;103048.16;;;19.13;36.42
19208;BME280;9737;59.466;18.036;2023-05-09T07:42:23;103164.88;;;19.42;36.71
19208;BME280;9737;59.466;18.036;2023-05-09T07:44:51;103175.56;;;19.44;36.71
19208;BME280;9737;59.466;18.036;2023-05-09T07:47:20;103172.13;;;19.42;36.72
19208;BME280;9737;59.466;18.036;2023-05-09T07:49:48;103141.19;;;19.33;36.76
19208;BME280;9737;59.466;18.036;2023-05-09T07:52:16;103229.81;;;19.54;36.82
19208;BME280;9737;59.466;18.036;2023-05-09T07:54:44;103284.53;;;19.70;36.77
19208;BME280;9737;59.466;18.036;2023-05-09T07:57:13;103227.13;;;19.54;36.80
19208;BME280;9737;59.466;18.036;2023-05-09T07:59:41;103185.50;;;19.43;36.99
19208;BME280;9737;59.466;18.036;2023-05-09T08:02:09;103152.84;;;19.34;36.86
19208;BME280;9737;59.466;18.036;2023-05-09T08:04:37;103113.88;;;19.25;37.00
19208;BME280;9737;59.466;18.036;2023-05-09T08:07:07;103277.56;;;19.66;36.94
19208;BME280;9737;59.466;18.036;2023-05-09T08:09:35;103292.91;;;19.65;37.03
19208;BME280;9737;59.466;18.036;2023-05-09T08:12:03;103297.25;;;19.68;37.06
19208;BME280;9737;59.466;18.036;2023-05-09T08:14:33;103187.53;;;19.40;37.08
19208;BME280;9737;59.466;18.036;2023-05-09T08:17:01;103352.16;;;19.81;37.05
19208;BME280;9737;59.466;18.036;2023-05-09T08:19:28;103384.94;;;19.89;37.15
19208;BME280;9737;59.466;18.036;2023-05-09T08:21:56;103497.53;;;20.16;37.21
19208;BME280;9737;59.466;18.036;2023-05-09T08:24:24;103559.47;;;20.33;37.06
19208;BME280;9737;59.466;18.036;2023-05-09T08:26:53;103759.00;;;20.83;37.21
19208;BME280;9737;59.466;18.036;2023-05-09T08:29:21;103887.00;;;21.12;37.27
19208;BME280;9737;59.466;18.036;2023-05-09T08:31:50;103989.28;;;21.36;37.37
19208;BME280;9737;59.466;18.036;2023-05-09T08:34:19;104154.53;;;21.78;37.26
19208;BME280;9737;59.466;18.036;2023-05-09T08:36:47;104222.28;;;21.92;37.34
19208;BME280;9737;59.466;18.036;2023-05-09T08:39:15;104484.09;;;22.56;37.36
19208;BME280;9737;59.466;18.036;2023-05-09T08:41:43;104584.66;;;22.83;37.53
19208;BME280;9737;59.466;18.036;2023-05-09T08:44:12;104674.91;;;23.03;37.42
19208;BME280;9737;59.466;18.036;2023-05-09T08:46:42;104717.88;;;23.10;37.55
19208;BME280;9737;59.466;18.036;2023-05-09T08:49:13;104730.34;;;23.14;37.64
19208;BME280;9737;59.466;18.036;2023-05-09T08:51:42;104772.16;;;23.26;37.39
19208;BME280;9737;59.466;18.036;2023-05-09T08:54:11;104730.34;;;23.14;37.43
19208;BME280;9737;59.466;18.036;2023-05-09T08:56:40;104682.19;;;23.02;37.34
19208;BME280;9737;59.466;18.036;2023-05-09T08:59:08;104796.34;;;23.31;37.66
19208;BME280;9737;59.466;18.036;2023-05-09T09:01:36;104777.59;;;23.26;37.51
19208;BME280;9737;59.466;18.036;2023-05-09T09:04:06;105021.59;;;23.83;37.77
19208;BME280;9737;59.466;18.036;2023-05-09T09:06:36;105112.81;;;24.04;37.34
19208;BME280;9737;59.466;18.036;2023-05-09T09:09:05;105057.38;;;23.91;37.50
19208;BME280;9737;59.466;18.036;2023-05-09T09:11:34;105098.44;;;24.02;37.71
19208;BME280;9737;59.466;18.036;2023-05-09T09:14:05;105238.16;;;24.32;37.80
19208;BME280;9737;59.466;18.036;2023-05-09T09:16:35;105359.59;;;24.66;37.42
19208;BME280;9737;59.466;18.036;2023-05-09T09:19:08;105669.94;;;25.36;37.42
19208;BME280;9737;59.466;18.036;2023-05-09T09:21:40;105933.75;;;26.00;37.79
19208;BME280;9737;59.466;18.036;2023-05-09T09:24:13;106064.97;;;26.30;37.60
19208;BME280;9737;59.466;18.036;2023-05-09T09:26:47;106091.91;;;26.37;37.74
19208;BME280;9737;59.466;18.036;2023-05-09T09:29:16;106037.03;;;26.24;37.68
19208;BME280;9737;59.466;18.036;2023-05-09T09:31:52;105960.81;;;26.04;37.42
19208;BME280;9737;59.466;18.036;2023-05-09T09:34:22;106151.25;;;26.51;37.52
19208;BME280;9737;59.466;18.036;2023-05-09T09:36:51;106252.00;;;26.74;37.78
19208;BME280;9737;59.466;18.036;2023-05-09T09:39:19;106188.19;;;26.58;37.56
19208;BME280;9737;59.466;18.036;2023-05-09T09:41:48;106184.50;;;26.59;37.49
19208;BME280;9737;59.466;18.036;2023-05-09T09:44:18;106332.88;;;26.96;37.50
19208;BME280;9737;59.466;18.036;2023-05-09T09:46:47;106365.53;;;26.99;37.25
19208;BME280;9737;59.466;18.036;2023-05-09T09:49:17;106574.25;;;27.53;37.59
19208;BME280;9737;59.466;18.036;2023-05-09T09:51:49;106707.78;;;27.82;37.48
19208;BME280;9737;59.466;18.036;2023-05-09T09:54:19;106354.59;;;26.99;37.54
19208;BME280;9737;59.466;18.036;2023-05-09T09:56:48;106091.84;;;26.39;37.34
19208;BME280;9737;59.466;18.036;2023-05-09T09:59:18;106090.94;;;26.38;37.04
19208;BME280;9737;59.466;18.036;2023-05-09T10:01:59;106373.34;;;27.06;36.97
19208;BME280;9737;59.466;18.036;2023-05-09T10:04:34;106528.44;;;27.39;36.94
19208;BME280;9737;59.466;18.036;2023-05-09T10:07:04;106680.56;;;27.79;36.85
19208;BME280;9737;59.466;18.036;2023-05-09T10:09:35;106492.22;;;27.34;36.88
19208;BME280;9737;59.466;18.036;2023-05-09T10:12:04;106731.94;;;27.91;36.64
19208;BME280;9737;59.466;18.036;2023-05-09T10:14:35;106803.19;;;28.08;36.72
19208;BME280;9737;59.466;18.036;2023-05-09T10:17:04;106926.97;;;28.35;36.68
19208;BME280;9737;59.466;18.036;2023-05-09T10:19:32;107115.66;;;28.81;36.55
19208;BME280;9737;59.466;18.036;2023-05-09T10:22:04;107293.78;;;29.23;36.80
19208;BME280;9737;59.466;18.036;2023-05-09T10:24:39;107371.66;;;29.39;36.76
19208;BME280;9737;59.466;18.036;2023-05-09T10:27:09;107430.50;;;29.54;36.53
19208;BME280;9737;59.466;18.036;2023-05-09T10:29:43;107285.63;;;29.21;36.53
19208;BME280;9737;59.466;18.036;2023-05-09T10:32:15;107236.66;;;29.12;36.44
19208;BME280;9737;59.466;18.036;2023-05-09T10:34:48;107063.16;;;28.71;36.44
19208;BME280;9737;59.466;18.036;2023-05-09T10:37:19;107016.16;;;28.60;36.31
19208;BME280;9737;59.466;18.036;2023-05-09T10:39:50;107049.53;;;28.69;36.29
19208;BME280;9737;59.466;18.036;2023-05-09T10:42:21;107176.84;;;29.02;35.92
19208;BME280;9737;59.466;18.036;2023-05-09T10:44:51;107230.16;;;29.15;35.81
19208;BME280;9737;59.466;18.036;2023-05-09T10:47:20;107015.97;;;28.64;36.04
19208;BME280;9737;59.466;18.036;2023-05-09T10:49:48;106577.34;;;27.64;35.96
19208;BME280;9737;59.466;18.036;2023-05-09T10:52:16;106944.50;;;28.50;35.48
19208;BME280;9737;59.466;18.036;2023-05-09T10:54:58;106745.97;;;28.02;35.59
19208;BME280;9737;59.466;18.036;2023-05-09T10:57:28;106511.56;;;27.48;35.46
19208;BME280;9737;59.466;18.036;2023-05-09T10:59:56;106532.09;;;27.57;35.24
19208;BME280;9737;59.466;18.036;2023-05-09T11:02:25;106579.91;;;27.67;35.14
19208;BME280;9737;59.466;18.036;2023-05-09T11:05:13;106753.19;;;28.05;35.16
19208;BME280;9737;59.466;18.036;2023-05-09T11:07:41;106750.19;;;28.10;34.99
19208;BME280;9737;59.466;18.036;2023-05-09T11:10:14;106704.16;;;27.99;35.40
19208;BME280;9737;59.466;18.036;2023-05-09T11:12:53;106506.81;;;27.52;34.92
19208;BME280;9737;59.466;18.036;2023-05-09T11:15:24;106714.97;;;28.02;34.89
19208;BME280;9737;59.466;18.036;2023-05-09T11:18:04;107072.41;;;28.87;34.80
19208;BME280;9737;59.466;18.036;2023-05-09T11:20:35;107264.03;;;29.33;34.70
19208;BME280;9737;59.466;18.036;2023-05-09T11:23:09;107242.41;;;29.26;34.85
19208;BME280;9737;59.466;18.036;2023-05-09T11:25:41;107228.69;;;29.26;34.73
19208;BME280;9737;59.466;18.036;2023-05-09T11:28:25;106584.09;;;27.74;34.41
19208;BME280;9737;59.466;18.036;2023-05-09T11:31:08;106369.66;;;27.25;34.50
19208;BME280;9737;59.466;18.036;2023-05-09T11:33:37;106289.47;;;27.07;34.17
19208;BME280;9737;59.466;18.036;2023-05-09T11:36:16;105778.97;;;25.86;34.16
19208;BME280;9737;59.466;18.036;2023-05-09T11:38:46;105462.44;;;25.10;34.07
19208;BME280;9737;59.466;18.036;2023-05-09T11:41:15;105487.31;;;25.20;33.92
19208;BME280;9737;59.466;18.036;2023-05-09T11:43:43;105732.16;;;25.78;34.08
19208;BME280;9737;59.466;18.036;2023-05-09T11:46:11;105966.38;;;26.36;33.97
19208;BME280;9737;59.466;18.036;2023-05-09T11:48:40;106212.94;;;26.90;33.74
19208;BME280;9737;59.466;18.036;2023-05-09T11:51:15;106077.81;;;26.62;33.77
19208;BME280;9737;59.466;18.036;2023-05-09T11:53:44;106101.09;;;26.69;33.88
19208;BME280;9737;59.466;18.036;2023-05-09T11:56:14;105823.56;;;26.02;33.86
19208;BME280;9737;59.466;18.036;2023-05-09T11:58:42;105723.97;;;25.78;33.54
19208;BME280;9737;59.466;18.036;2023-05-09T12:01:12;105711.31;;;25.77;33.49
19208;BME280;9737;59.466;18.036;2023-05-09T12:03:43;105990.28;;;26.48;33.76
19208;BME280;9737;59.466;18.036;2023-05-09T12:06:15;105644.91;;;25.60;33.47
19208;BME280;9737;59.466;18.036;2023-05-09T12:08:44;105671.84;;;25.67;33.44
19208;BME280;9737;59.466;18.036;2023-05-09T12:11:14;105653.69;;;25.66;33.25
19208;BME280;9737;59.466;18.036;2023-05-09T12:13:46;105896.72;;;26.27;33.11
19208;BME280;9737;59.466;18.036;2023-05-09T12:16:16;106027.03;;;26.58;33.12
19208;BME280;9737;59.466;18.036;2023-05-09T12:18:45;105797.19;;;26.01;33.01
19208;BME280;9737;59.466;18.036;2023-05-09T12:21:13;105978.56;;;26.46;32.96
19208;BME280;9737;59.466;18.036;2023-05-09T12:23:42;105764.81;;;25.95;33.06
19208;BME280;9737;59.466;18.036;2023-05-09T12:26:10;105605.06;;;25.58;32.93
19208;BME280;9737;59.466;18.036;2023-05-09T12:28:39;105391.84;;;25.06;32.82
19208;BME280;9737;59.466;18.036;2023-05-09T12:31:08;105466.03;;;25.26;32.68
19208;BME280;9737;59.466;18.036;2023-05-09T12:33:37;105477.63;;;25.30;32.66
19208;BME280;9737;59.466;18.036;2023-05-09T12:36:07;105570.84;;;25.52;32.51
19208;BME280;9737;59.466;18.036;2023-05-09T12:38:36;105621.94;;;25.64;32.54
19208;BME280;9737;59.466;18.036;2023-05-09T12:41:05;105558.38;;;25.48;32.72
19208;BME280;9737;59.466;18.036;2023-05-09T12:43:49;105938.75;;;26.42;32.38
19208;BME280;9737;59.466;18.036;2023-05-09T12:46:17;105847.25;;;26.17;32.44
19208;BME280;9737;59.466;18.036;2023-05-09T12:48:47;106095.81;;;26.82;32.46
19208;BME280;9737;59.466;18.036;2023-05-09T12:51:17;106280.28;;;27.25;32.60
19208;BME280;9737;59.466;18.036;2023-05-09T12:53:47;106404.63;;;27.53;32.45
19208;BME280;9737;59.466;18.036;2023-05-09T12:56:16;106249.72;;;27.17;32.52
19208;BME280;9737;59.466;18.036;2023-05-09T12:58:50;105614.63;;;25.65;32.25
19208;BME280;9737;59.466;18.036;2023-05-09T13:01:19;105287.63;;;24.86;32.11
19208;BME280;9737;59.466;18.036;2023-05-09T13:03:50;104929.97;;;23.99;32.15
19208;BME280;9737;59.466;18.036;2023-05-09T13:06:18;104706.72;;;23.45;32.03
19208;BME280;9737;59.466;18.036;2023-05-09T13:08:56;104802.91;;;23.72;31.56
19208;BME280;9737;59.466;18.036;2023-05-09T13:11:24;105080.63;;;24.42;31.75